sensor_id;sensor_type;location;lat;lon;timestamp;temperature;humidity
47626;DHT22;33342;45.574;9.252;2023-02-05T00:01:27;12.70;99.90
47626;DHT22;33342;45.574;9.252;2023-02-05T00:03:54;12.60;99.90
47626;DHT22;33342;45.574;9.252;2023-02-05T00:06:21;12.60;99.90
47626;DHT22;33342;45.574;9.252;2023-02-05T00:08:48;12.60;99.90
47626;DHT22;33342;45.574;9.252;2023-02-05T00:11:16;12.60;99.90
47626;DHT22;33342;45.574;9.252;2023-02-05T00:13:43;12.50;99.90
47626;DHT22;33342;45.574;9.252;2023-02-05T00:16:15;12.40;99.90
47626;DHT22;33342;45.574;9.252;2023-02-05T00:18:43;12.40;99.90
47626;DHT22;33342;45.574;9.252;2023-02-05T00:21:10;12.40;99.90
47626;DHT22;33342;45.574;9.252;2023-02-05T00:23:38;12.40;99.90
47626;DHT22;33342;45.574;9.252;2023-02-05T00:26:06;12.30;99.90
47626;DHT22;33342;45.574;9.252;2023-02-05T00:28:34;12.30;99.90
47626;DHT22;33342;45.574;9.252;2023-02-05T00:31:22;12.30;99.90
47626;DHT22;33342;45.574;9.252;2023-02-05T00:33:50;12.30;99.90
47626;DHT22;33342;45.574;9.252;2023-02-05T00:36:18;12.20;99.90
47626;DHT22;33342;45.574;9.252;2023-02-05T00:38:46;12.20;99.90
47626;DHT22;33342;45.574;9.252;2023-02-05T00:41:14;12.20;99.90
47626;DHT22;33342;45.574;9.252;2023-02-05T00:43:42;12.10;99.90
47626;DHT22;33342;45.574;9.252;2023-02-05T00:46:11;12.10;99.90
47626;DHT22;33342;45.574;9.252;2023-02-05T00:48:39;12.10;99.90
47626;DHT22;33342;45.574;9.252;2023-02-05T00:51:08;12.00;99.90
47626;DHT22;33342;45.574;9.252;2023-02-05T00:53:36;12.00;99.90
47626;DHT22;33342;45.574;9.252;2023-02-05T00:56:03;12.00;99.90
47626;DHT22;33342;45.574;9.252;2023-02-05T00:58:30;12.00;99.90
47626;DHT22;33342;45.574;9.252;2023-02-05T01:00:57;12.00;99.90
47626;DHT22;33342;45.574;9.252;2023-02-05T01:03:24;11.90;99.90
47626;DHT22;33342;45.574;9.252;2023-02-05T01:05:51;12.00;99.90
47626;DHT22;33342;45.574;9.252;2023-02-05T01:08:18;11.90;99.90
47626;DHT22;33342;45.574;9.252;2023-02-05T01:10:47;11.90;99.90
47626;DHT22;33342;45.574;9.252;2023-02-05T01:13:14;11.90;99.90
47626;DHT22;33342;45.574;9.252;2023-02-05T01:15:44;11.90;99.90
47626;DHT22;33342;45.574;9.252;2023-02-05T01:18:12;11.90;99.90
47626;DHT22;33342;45.574;9.252;2023-02-05T01:20:40;11.80;99.90
47626;DHT22;33342;45.574;9.252;2023-02-05T01:23:07;11.90;99.90
47626;DHT22;33342;45.574;9.252;2023-02-05T01:25:35;11.90;99.90
47626;DHT22;33342;45.574;9.252;2023-02-05T01:28:03;11.90;99.90
47626;DHT22;33342;45.574;9.252;2023-02-05T01:30:30;11.90;99.90
47626;DHT22;33342;45.574;9.252;2023-02-05T01:32:57;11.90;99.90
47626;DHT22;33342;45.574;9.252;2023-02-05T01:35:24;11.80;99.90
47626;DHT22;33342;45.574;9.252;2023-02-05T01:37:51;11.80;99.90
47626;DHT22;33342;45.574;9.252;2023-02-05T01:40:18;11.90;99.90
47626;DHT22;33342;45.574;9.252;2023-02-05T01:42:46;11.90;99.90
47626;DHT22;33342;45.574;9.252;2023-02-05T01:50:36;11.90;99.90
47626;DHT22;33342;45.574;9.252;2023-02-05T01:53:10;11.90;99.90
47626;DHT22;33342;45.574;9.252;2023-02-05T01:55:44;11.80;99.90
47626;DHT22;33342;45.574;9.252;2023-02-05T01:58:12;11.80;99.90
47626;DHT22;33342;45.574;9.252;2023-02-05T02:00:39;11.80;99.90
47626;DHT22;33342;45.574;9.252;2023-02-05T02:03:07;11.80;99.90
47626;DHT22;33342;45.574;9.252;2023-02-05T02:05:36;11.80;99.90
47626;DHT22;33342;45.574;9.252;2023-02-05T02:08:04;11.80;99.90
47626;DHT22;33342;45.574;9.252;2023-02-05T02:10:32;11.80;99.90
47626;DHT22;33342;45.574;9.252;2023-02-05T02:13:00;11.80;99.90
47626;DHT22;33342;45.574;9.252;2023-02-05T02:15:28;11.80;99.90
47626;DHT22;33342;45.574;9.252;2023-02-05T02:17:59;11.80;99.90
47626;DHT22;33342;45.574;9.252;2023-02-05T02:21:03;11.80;99.90
47626;DHT22;33342;45.574;9.252;2023-02-05T02:26:49;11.70;99.90
47626;DHT22;33342;45.574;9.252;2023-02-05T02:29:37;11.70;99.90
47626;DHT22;33342;45.574;9.252;2023-02-05T02:32:12;11.70;99.90
47626;DHT22;33342;45.574;9.252;2023-02-05T02:34:48;11.70;99.90
47626;DHT22;33342;45.574;9.252;2023-02-05T02:37:24;11.70;99.90
47626;DHT22;33342;45.574;9.252;2023-02-05T02:39:57;11.70;99.90
47626;DHT22;33342;45.574;9.252;2023-02-05T02:42:44;11.70;99.90
47626;DHT22;33342;45.574;9.252;2023-02-05T02:45:13;11.60;99.90
47626;DHT22;33342;45.574;9.252;2023-02-05T02:47:49;11.70;99.90
47626;DHT22;33342;45.574;9.252;2023-02-05T02:50:25;11.60;99.90
47626;DHT22;33342;45.574;9.252;2023-02-05T02:53:06;11.60;99.90
47626;DHT22;33342;45.574;9.252;2023-02-05T02:55:37;11.60;99.90
47626;DHT22;33342;45.574;9.252;2023-02-05T02:58:09;11.60;99.90
47626;DHT22;33342;45.574;9.252;2023-02-05T03:00:38;11.50;99.90
47626;DHT22;33342;45.574;9.252;2023-02-05T03:03:08;11.60;99.90
47626;DHT22;33342;45.574;9.252;2023-02-05T03:05:39;11.60;99.90
47626;DHT22;33342;45.574;9.252;2023-02-05T03:08:51;11.60;99.90
47626;DHT22;33342;45.574;9.252;2023-02-05T03:11:21;11.50;99.90
47626;DHT22;33342;45.574;9.252;2023-02-05T03:13:48;11.50;99.90
47626;DHT22;33342;45.574;9.252;2023-02-05T03:16:20;11.50;99.90
47626;DHT22;33342;45.574;9.252;2023-02-05T03:18:47;11.50;99.90
47626;DHT22;33342;45.574;9.252;2023-02-05T03:21:29;11.50;99.90
47626;DHT22;33342;45.574;9.252;2023-02-05T03:23:59;11.50;99.90
47626;DHT22;33342;45.574;9.252;2023-02-05T03:26:32;11.50;99.90
47626;DHT22;33342;45.574;9.252;2023-02-05T03:29:17;11.50;99.90
47626;DHT22;33342;45.574;9.252;2023-02-05T03:35:12;11.40;99.90
47626;DHT22;33342;45.574;9.252;2023-02-05T03:43:46;11.30;99.90
47626;DHT22;33342;45.574;9.252;2023-02-05T03:49:16;11.30;99.90
47626;DHT22;33342;45.574;9.252;2023-02-05T03:52:03;11.30;99.90
47626;DHT22;33342;45.574;9.252;2023-02-05T03:54:55;11.30;99.90
47626;DHT22;33342;45.574;9.252;2023-02-05T03:57:34;11.30;99.90
47626;DHT22;33342;45.574;9.252;2023-02-05T04:00:03;11.30;99.90
47626;DHT22;33342;45.574;9.252;2023-02-05T04:02:40;11.30;99.90
47626;DHT22;33342;45.574;9.252;2023-02-05T04:05:09;11.30;99.90
47626;DHT22;33342;45.574;9.252;2023-02-05T04:07:39;11.30;99.90
47626;DHT22;33342;45.574;9.252;2023-02-05T04:10:07;11.30;99.90
47626;DHT22;33342;45.574;9.252;2023-02-05T04:12:35;11.20;99.90
47626;DHT22;33342;45.574;9.252;2023-02-05T04:15:04;11.20;99.90
47626;DHT22;33342;45.574;9.252;2023-02-05T04:17:34;11.20;99.90
47626;DHT22;33342;45.574;9.252;2023-02-05T04:20:01;11.20;99.90
47626;DHT22;33342;45.574;9.252;2023-02-05T04:22:30;11.20;99.90
47626;DHT22;33342;45.574;9.252;2023-02-05T04:24:57;11.20;99.90
47626;DHT22;33342;45.574;9.252;2023-02-05T04:27:24;11.20;99.90
47626;DHT22;33342;45.574;9.252;2023-02-05T04:29:53;11.20;99.90
47626;DHT22;33342;45.574;9.252;2023-02-05T04:32:20;11.20;99.90
47626;DHT22;33342;45.574;9.252;2023-02-05T04:34:47;11.20;99.90
47626;DHT22;33342;45.574;9.252;2023-02-05T04:37:14;11.10;99.90
47626;DHT22;33342;45.574;9.252;2023-02-05T04:39:41;11.10;99.90
47626;DHT22;33342;45.574;9.252;2023-02-05T04:42:08;11.10;99.90
47626;DHT22;33342;45.574;9.252;2023-02-05T04:44:35;11.10;99.90
47626;DHT22;33342;45.574;9.252;2023-02-05T04:47:02;11.10;99.90
47626;DHT22;33342;45.574;9.252;2023-02-05T04:49:31;11.10;99.90
47626;DHT22;33342;45.574;9.252;2023-02-05T04:51:59;11.10;99.90
47626;DHT22;33342;45.574;9.252;2023-02-05T04:54:26;11.10;99.90
47626;DHT22;33342;45.574;9.252;2023-02-05T04:56:54;11.10;99.90
47626;DHT22;33342;45.574;9.252;2023-02-05T04:59:20;11.10;99.90
47626;DHT22;33342;45.574;9.252;2023-02-05T05:01:48;11.10;99.90
47626;DHT22;33342;45.574;9.252;2023-02-05T05:04:15;11.10;99.90
47626;DHT22;33342;45.574;9.252;2023-02-05T05:06:42;11.10;99.90
47626;DHT22;33342;45.574;9.252;2023-02-05T05:09:09;11.10;99.90
47626;DHT22;33342;45.574;9.252;2023-02-05T05:11:35;11.00;99.90
47626;DHT22;33342;45.574;9.252;2023-02-05T05:14:02;11.00;99.90
47626;DHT22;33342;45.574;9.252;2023-02-05T05:16:29;11.00;99.90
47626;DHT22;33342;45.574;9.252;2023-02-05T05:18:56;11.00;99.90
47626;DHT22;33342;45.574;9.252;2023-02-05T05:21:24;11.00;99.90
47626;DHT22;33342;45.574;9.252;2023-02-05T05:23:51;11.00;99.90
47626;DHT22;33342;45.574;9.252;2023-02-05T05:26:17;11.00;99.90
47626;DHT22;33342;45.574;9.252;2023-02-05T05:28:44;11.00;99.90
47626;DHT22;33342;45.574;9.252;2023-02-05T05:31:15;10.90;99.90
47626;DHT22;33342;45.574;9.252;2023-02-05T05:33:43;11.00;99.90
47626;DHT22;33342;45.574;9.252;2023-02-05T05:36:11;10.90;99.90
47626;DHT22;33342;45.574;9.252;2023-02-05T05:38:38;10.90;99.90
47626;DHT22;33342;45.574;9.252;2023-02-05T05:41:06;10.90;99.90
47626;DHT22;33342;45.574;9.252;2023-02-05T05:43:53;10.90;99.90
47626;DHT22;33342;45.574;9.252;2023-02-05T05:46:23;10.90;99.90
47626;DHT22;33342;45.574;9.252;2023-02-05T05:48:55;10.90;99.90
47626;DHT22;33342;45.574;9.252;2023-02-05T05:51:23;10.90;99.90
47626;DHT22;33342;45.574;9.252;2023-02-05T05:53:51;10.80;99.90
47626;DHT22;33342;45.574;9.252;2023-02-05T05:56:18;10.80;99.90
47626;DHT22;33342;45.574;9.252;2023-02-05T05:58:46;10.80;99.90
47626;DHT22;33342;45.574;9.252;2023-02-05T06:01:15;10.80;99.90
47626;DHT22;33342;45.574;9.252;2023-02-05T06:03:42;10.80;99.90
47626;DHT22;33342;45.574;9.252;2023-02-05T06:06:10;10.80;99.90
47626;DHT22;33342;45.574;9.252;2023-02-05T06:08:37;10.80;99.90
47626;DHT22;33342;45.574;9.252;2023-02-05T06:11:04;10.70;99.90
47626;DHT22;33342;45.574;9.252;2023-02-05T06:13:32;10.70;99.90
47626;DHT22;33342;45.574;9.252;2023-02-05T06:16:00;10.70;99.90
47626;DHT22;33342;45.574;9.252;2023-02-05T06:18:28;10.70;99.90
47626;DHT22;33342;45.574;9.252;2023-02-05T06:20:55;10.70;99.90
47626;DHT22;33342;45.574;9.252;2023-02-05T06:23:22;10.60;99.90
47626;DHT22;33342;45.574;9.252;2023-02-05T06:25:49;10.70;99.90
47626;DHT22;33342;45.574;9.252;2023-02-05T06:28:16;10.60;99.90
47626;DHT22;33342;45.574;9.252;2023-02-05T06:30:43;10.60;99.90
47626;DHT22;33342;45.574;9.252;2023-02-05T06:33:10;10.60;99.90
47626;DHT22;33342;45.574;9.252;2023-02-05T06:35:39;10.60;99.90
47626;DHT22;33342;45.574;9.252;2023-02-05T06:38:07;10.60;99.90
47626;DHT22;33342;45.574;9.252;2023-02-05T06:40:34;10.60;99.90
47626;DHT22;33342;45.574;9.252;2023-02-05T06:43:01;10.60;99.90
47626;DHT22;33342;45.574;9.252;2023-02-05T06:45:28;10.60;99.90
47626;DHT22;33342;45.574;9.252;2023-02-05T06:47:55;10.60;99.90
47626;DHT22;33342;45.574;9.252;2023-02-05T06:50:23;10.60;99.90
47626;DHT22;33342;45.574;9.252;2023-02-05T06:52:50;10.60;99.90
47626;DHT22;33342;45.574;9.252;2023-02-05T06:55:17;10.60;99.90
47626;DHT22;33342;45.574;9.252;2023-02-05T06:57:44;10.60;99.90
47626;DHT22;33342;45.574;9.252;2023-02-05T07:00:12;10.60;99.90
47626;DHT22;33342;45.574;9.252;2023-02-05T07:02:39;10.60;99.90
47626;DHT22;33342;45.574;9.252;2023-02-05T07:05:07;10.60;99.90
47626;DHT22;33342;45.574;9.252;2023-02-05T07:07:34;10.60;99.90
47626;DHT22;33342;45.574;9.252;2023-02-05T07:10:02;10.60;99.90
47626;DHT22;33342;45.574;9.252;2023-02-05T07:12:29;10.60;99.90
47626;DHT22;33342;45.574;9.252;2023-02-05T07:14:56;10.60;99.90
47626;DHT22;33342;45.574;9.252;2023-02-05T07:17:23;10.60;99.90
47626;DHT22;33342;45.574;9.252;2023-02-05T07:19:50;10.60;99.90
47626;DHT22;33342;45.574;9.252;2023-02-05T07:22:17;10.60;99.90
47626;DHT22;33342;45.574;9.252;2023-02-05T07:24:44;10.60;99.90
47626;DHT22;33342;45.574;9.252;2023-02-05T07:27:11;10.70;99.90
47626;DHT22;33342;45.574;9.252;2023-02-05T07:29:38;10.60;99.90
47626;DHT22;33342;45.574;9.252;2023-02-05T07:32:05;10.70;99.90
47626;DHT22;33342;45.574;9.252;2023-02-05T07:34:32;10.70;99.90
47626;DHT22;33342;45.574;9.252;2023-02-05T07:36:59;10.70;99.90
47626;DHT22;33342;45.574;9.252;2023-02-05T07:39:26;10.70;99.90
47626;DHT22;33342;45.574;9.252;2023-02-05T07:41:56;10.70;99.90
47626;DHT22;33342;45.574;9.252;2023-02-05T07:44:34;10.70;99.90
47626;DHT22;33342;45.574;9.252;2023-02-05T07:47:01;10.70;99.90
47626;DHT22;33342;45.574;9.252;2023-02-05T07:49:29;10.70;99.90
47626;DHT22;33342;45.574;9.252;2023-02-05T07:51:56;10.70;99.90
47626;DHT22;33342;45.574;9.252;2023-02-05T07:54:23;10.70;99.90
47626;DHT22;33342;45.574;9.252;2023-02-05T07:56:50;10.70;99.90
47626;DHT22;33342;45.574;9.252;2023-02-05T07:59:17;10.70;99.90
47626;DHT22;33342;45.574;9.252;2023-02-05T08:01:44;10.70;99.90
47626;DHT22;33342;45.574;9.252;2023-02-05T08:04:11;10.70;99.90
47626;DHT22;33342;45.574;9.252;2023-02-05T08:06:38;10.70;99.90
47626;DHT22;33342;45.574;9.252;2023-02-05T08:09:05;10.70;99.90
47626;DHT22;33342;45.574;9.252;2023-02-05T08:11:32;10.70;99.90
47626;DHT22;33342;45.574;9.252;2023-02-05T08:14:00;10.70;99.90
47626;DHT22;33342;45.574;9.252;2023-02-05T08:16:27;10.80;99.90
47626;DHT22;33342;45.574;9.252;2023-02-05T08:18:54;10.80;99.90
47626;DHT22;33342;45.574;9.252;2023-02-05T08:21:21;10.80;99.90
47626;DHT22;33342;45.574;9.252;2023-02-05T08:23:49;10.80;99.90
47626;DHT22;33342;45.574;9.252;2023-02-05T08:26:17;10.70;99.90
47626;DHT22;33342;45.574;9.252;2023-02-05T08:28:44;10.80;99.90
47626;DHT22;33342;45.574;9.252;2023-02-05T08:31:14;10.80;99.90
47626;DHT22;33342;45.574;9.252;2023-02-05T08:33:42;10.80;99.90
47626;DHT22;33342;45.574;9.252;2023-02-05T08:36:10;10.80;99.90
47626;DHT22;33342;45.574;9.252;2023-02-05T08:38:37;10.80;99.90
47626;DHT22;33342;45.574;9.252;2023-02-05T08:41:06;10.80;99.90
47626;DHT22;33342;45.574;9.252;2023-02-05T08:43:44;10.80;99.90
47626;DHT22;33342;45.574;9.252;2023-02-05T08:46:24;10.80;99.90
47626;DHT22;33342;45.574;9.252;2023-02-05T08:48:57;10.80;99.90
47626;DHT22;33342;45.574;9.252;2023-02-05T08:51:24;10.80;99.90
47626;DHT22;33342;45.574;9.252;2023-02-05T08:53:51;10.80;99.90
47626;DHT22;33342;45.574;9.252;2023-02-05T08:56:19;10.70;99.90
47626;DHT22;33342;45.574;9.252;2023-02-05T08:58:46;10.70;99.90
47626;DHT22;33342;45.574;9.252;2023-02-05T09:01:15;10.80;99.90
47626;DHT22;33342;45.574;9.252;2023-02-05T09:03:44;10.80;99.90
47626;DHT22;33342;45.574;9.252;2023-02-05T09:06:14;10.80;99.90
47626;DHT22;33342;45.574;9.252;2023-02-05T09:08:41;10.80;99.90
47626;DHT22;33342;45.574;9.252;2023-02-05T09:11:09;10.80;99.90
47626;DHT22;33342;45.574;9.252;2023-02-05T09:13:36;10.80;99.90
47626;DHT22;33342;45.574;9.252;2023-02-05T09:16:04;10.80;99.90
47626;DHT22;33342;45.574;9.252;2023-02-05T09:18:31;10.80;99.90
47626;DHT22;33342;45.574;9.252;2023-02-05T09:20:57;10.80;99.90
47626;DHT22;33342;45.574;9.252;2023-02-05T09:23:24;10.80;99.90
47626;DHT22;33342;45.574;9.252;2023-02-05T09:25:51;10.90;99.90
47626;DHT22;33342;45.574;9.252;2023-02-05T09:28:18;10.90;99.90
47626;DHT22;33342;45.574;9.252;2023-02-05T09:30:45;10.90;99.90
47626;DHT22;33342;45.574;9.252;2023-02-05T09:33:13;11.00;99.90
47626;DHT22;33342;45.574;9.252;2023-02-05T09:35:40;11.00;99.90
47626;DHT22;33342;45.574;9.252;2023-02-05T09:38:11;11.00;99.90
47626;DHT22;33342;45.574;9.252;2023-02-05T09:41:02;10.90;99.90
47626;DHT22;33342;45.574;9.252;2023-02-05T09:48:41;10.90;99.90
47626;DHT22;33342;45.574;9.252;2023-02-05T09:51:21;10.80;99.90
47626;DHT22;33342;45.574;9.252;2023-02-05T09:53:55;10.90;99.90
47626;DHT22;33342;45.574;9.252;2023-02-05T09:56:24;10.90;99.90
47626;DHT22;33342;45.574;9.252;2023-02-05T09:58:54;10.90;99.90
47626;DHT22;33342;45.574;9.252;2023-02-05T10:04:03;10.90;99.90
47626;DHT22;33342;45.574;9.252;2023-02-05T10:06:45;11.00;99.90
47626;DHT22;33342;45.574;9.252;2023-02-05T10:21:22;11.00;99.90
47626;DHT22;33342;45.574;9.252;2023-02-05T10:23:36;11.00;99.90
47626;DHT22;33342;45.574;9.252;2023-02-05T10:26:11;11.10;99.90
47626;DHT22;33342;45.574;9.252;2023-02-05T10:33:50;11.10;99.90
47626;DHT22;33342;45.574;9.252;2023-02-05T10:36:24;11.20;99.90
47626;DHT22;33342;45.574;9.252;2023-02-05T10:38:54;11.20;99.90
47626;DHT22;33342;45.574;9.252;2023-02-05T10:41:35;11.20;99.90
47626;DHT22;33342;45.574;9.252;2023-02-05T10:46:38;11.20;99.90
47626;DHT22;33342;45.574;9.252;2023-02-05T10:49:15;11.30;99.90
47626;DHT22;33342;45.574;9.252;2023-02-05T10:51:45;11.30;99.90
47626;DHT22;33342;45.574;9.252;2023-02-05T10:54:27;11.40;99.90
47626;DHT22;33342;45.574;9.252;2023-02-05T10:56:56;11.40;99.90
47626;DHT22;33342;45.574;9.252;2023-02-05T11:02:00;11.40;99.90
47626;DHT22;33342;45.574;9.252;2023-02-05T11:04:45;11.50;99.90
47626;DHT22;33342;45.574;9.252;2023-02-05T11:07:38;11.50;99.90
47626;DHT22;33342;45.574;9.252;2023-02-05T11:10:18;11.50;99.90
47626;DHT22;33342;45.574;9.252;2023-02-05T11:12:48;11.50;99.90
47626;DHT22;33342;45.574;9.252;2023-02-05T11:15:24;11.60;99.90
47626;DHT22;33342;45.574;9.252;2023-02-05T11:18:04;11.60;99.90
47626;DHT22;33342;45.574;9.252;2023-02-05T11:20:33;11.60;99.90
47626;DHT22;33342;45.574;9.252;2023-02-05T11:23:13;11.60;99.90
47626;DHT22;33342;45.574;9.252;2023-02-05T11:25:56;11.70;99.90
47626;DHT22;33342;45.574;9.252;2023-02-05T11:28:34;11.80;99.90
47626;DHT22;33342;45.574;9.252;2023-02-05T11:31:27;11.80;99.90
47626;DHT22;33342;45.574;9.252;2023-02-05T11:36:36;11.90;99.90
47626;DHT22;33342;45.574;9.252;2023-02-05T11:39:05;11.90;99.90
47626;DHT22;33342;45.574;9.252;2023-02-05T11:41:35;11.90;99.90
47626;DHT22;33342;45.574;9.252;2023-02-05T11:44:29;11.90;99.90
47626;DHT22;33342;45.574;9.252;2023-02-05T11:46:59;11.90;99.90
47626;DHT22;33342;45.574;9.252;2023-02-05T11:49:37;12.00;99.90
47626;DHT22;33342;45.574;9.252;2023-02-05T11:52:14;12.00;99.90
47626;DHT22;33342;45.574;9.252;2023-02-05T11:54:46;12.00;99.90
47626;DHT22;33342;45.574;9.252;2023-02-05T11:59:57;12.00;99.90
47626;DHT22;33342;45.574;9.252;2023-02-05T12:10:20;11.90;99.90
47626;DHT22;33342;45.574;9.252;2023-02-05T12:19:10;11.90;99.90
47626;DHT22;33342;45.574;9.252;2023-02-05T12:27:09;11.90;99.90
47626;DHT22;33342;45.574;9.252;2023-02-05T12:38:13;12.00;99.90
47626;DHT22;33342;45.574;9.252;2023-02-05T12:43:46;12.00;99.90
47626;DHT22;33342;45.574;9.252;2023-02-05T12:54:12;12.10;99.90
47626;DHT22;33342;45.574;9.252;2023-02-05T12:57:03;12.10;99.90
47626;DHT22;33342;45.574;9.252;2023-02-05T12:59:38;12.10;99.90
47626;DHT22;33342;45.574;9.252;2023-02-05T13:05:15;12.10;99.90
47626;DHT22;33342;45.574;9.252;2023-02-05T13:07:49;12.10;99.90
47626;DHT22;33342;45.574;9.252;2023-02-05T13:10:23;12.10;99.90
47626;DHT22;33342;45.574;9.252;2023-02-05T13:12:58;12.20;99.90
47626;DHT22;33342;45.574;9.252;2023-02-05T13:15:39;12.20;99.90
47626;DHT22;33342;45.574;9.252;2023-02-05T13:18:15;12.20;99.90
47626;DHT22;33342;45.574;9.252;2023-02-05T13:20:47;12.20;99.90
47626;DHT22;33342;45.574;9.252;2023-02-05T13:23:35;12.20;99.90
47626;DHT22;33342;45.574;9.252;2023-02-05T13:26:30;12.30;99.90
47626;DHT22;33342;45.574;9.252;2023-02-05T13:29:18;12.30;99.90
47626;DHT22;33342;45.574;9.252;2023-02-05T13:31:49;12.40;99.90
47626;DHT22;33342;45.574;9.252;2023-02-05T13:34:18;12.50;99.90
47626;DHT22;33342;45.574;9.252;2023-02-05T13:39:50;12.60;99.90
47626;DHT22;33342;45.574;9.252;2023-02-05T13:53:55;13.00;99.90
47626;DHT22;33342;45.574;9.252;2023-02-05T13:56:46;13.00;99.90
47626;DHT22;33342;45.574;9.252;2023-02-05T13:59:27;13.60;99.90
47626;DHT22;33342;45.574;9.252;2023-02-05T14:01:57;14.30;99.90
47626;DHT22;33342;45.574;9.252;2023-02-05T14:04:38;14.70;99.90
47626;DHT22;33342;45.574;9.252;2023-02-05T14:07:22;15.20;99.90
47626;DHT22;33342;45.574;9.252;2023-02-05T14:09:53;15.30;99.90
47626;DHT22;33342;45.574;9.252;2023-02-05T14:12:24;15.10;99.90
47626;DHT22;33342;45.574;9.252;2023-02-05T14:22:58;14.90;99.90
47626;DHT22;33342;45.574;9.252;2023-02-05T14:28:31;14.50;99.90
47626;DHT22;33342;45.574;9.252;2023-02-05T14:31:00;14.20;99.90
47626;DHT22;33342;45.574;9.252;2023-02-05T14:39:02;14.80;99.90
47626;DHT22;33342;45.574;9.252;2023-02-05T14:41:46;15.60;99.90
47626;DHT22;33342;45.574;9.252;2023-02-05T14:44:36;16.30;99.90
47626;DHT22;33342;45.574;9.252;2023-02-05T14:47:23;16.20;99.90
47626;DHT22;33342;45.574;9.252;2023-02-05T14:50:24;16.30;99.90
47626;DHT22;33342;45.574;9.252;2023-02-05T14:52:55;16.50;99.90
47626;DHT22;33342;45.574;9.252;2023-02-05T14:55:40;16.70;99.90
47626;DHT22;33342;45.574;9.252;2023-02-05T14:58:36;16.90;99.90
47626;DHT22;33342;45.574;9.252;2023-02-05T15:04:04;17.00;99.90
47626;DHT22;33342;45.574;9.252;2023-02-05T15:06:38;17.00;99.90
47626;DHT22;33342;45.574;9.252;2023-02-05T15:09:18;17.00;99.90
47626;DHT22;33342;45.574;9.252;2023-02-05T15:12:23;16.90;99.90
47626;DHT22;33342;45.574;9.252;2023-02-05T15:14:57;16.50;99.90
47626;DHT22;33342;45.574;9.252;2023-02-05T15:17:34;16.00;99.90
47626;DHT22;33342;45.574;9.252;2023-02-05T15:20:18;15.90;99.90
47626;DHT22;33342;45.574;9.252;2023-02-05T15:22:51;16.40;99.90
47626;DHT22;33342;45.574;9.252;2023-02-05T15:25:40;16.90;99.90
47626;DHT22;33342;45.574;9.252;2023-02-05T15:36:46;17.50;99.90
47626;DHT22;33342;45.574;9.252;2023-02-05T15:42:25;17.10;99.90
47626;DHT22;33342;45.574;9.252;2023-02-05T15:44:53;17.00;99.90
47626;DHT22;33342;45.574;9.252;2023-02-05T15:47:22;16.90;99.90
47626;DHT22;33342;45.574;9.252;2023-02-05T15:49:53;16.90;99.90
47626;DHT22;33342;45.574;9.252;2023-02-05T15:52:25;16.80;99.90
47626;DHT22;33342;45.574;9.252;2023-02-05T15:54:58;16.70;99.90
47626;DHT22;33342;45.574;9.252;2023-02-05T15:57:28;16.50;99.90
47626;DHT22;33342;45.574;9.252;2023-02-05T15:59:57;16.20;99.90
47626;DHT22;33342;45.574;9.252;2023-02-05T16:02:26;15.80;99.90
47626;DHT22;33342;45.574;9.252;2023-02-05T16:05:16;15.50;99.90
47626;DHT22;33342;45.574;9.252;2023-02-05T16:07:44;15.20;99.90
47626;DHT22;33342;45.574;9.252;2023-02-05T16:10:20;14.90;99.90
47626;DHT22;33342;45.574;9.252;2023-02-05T16:12:58;14.70;99.90
47626;DHT22;33342;45.574;9.252;2023-02-05T16:15:47;14.60;99.90
47626;DHT22;33342;45.574;9.252;2023-02-05T16:18:36;14.30;99.90
47626;DHT22;33342;45.574;9.252;2023-02-05T16:21:35;14.20;99.90
47626;DHT22;33342;45.574;9.252;2023-02-05T16:24:07;14.00;99.90
47626;DHT22;33342;45.574;9.252;2023-02-05T16:26:40;13.90;99.90
47626;DHT22;33342;45.574;9.252;2023-02-05T16:29:19;13.70;99.90
47626;DHT22;33342;45.574;9.252;2023-02-05T16:32:29;13.60;99.90
47626;DHT22;33342;45.574;9.252;2023-02-05T16:34:59;13.40;99.90
47626;DHT22;33342;45.574;9.252;2023-02-05T16:37:30;13.30;99.90
47626;DHT22;33342;45.574;9.252;2023-02-05T16:39:59;13.10;99.90
47626;DHT22;33342;45.574;9.252;2023-02-05T16:47:37;12.90;99.90
47626;DHT22;33342;45.574;9.252;2023-02-05T16:50:42;12.80;99.90
47626;DHT22;33342;45.574;9.252;2023-02-05T16:53:30;12.70;99.90
47626;DHT22;33342;45.574;9.252;2023-02-05T16:56:01;12.70;99.90
47626;DHT22;33342;45.574;9.252;2023-02-05T16:58:43;12.70;99.90
47626;DHT22;33342;45.574;9.252;2023-02-05T17:01:11;12.60;99.90
47626;DHT22;33342;45.574;9.252;2023-02-05T17:03:39;12.60;99.90
47626;DHT22;33342;45.574;9.252;2023-02-05T17:06:12;12.60;99.90
47626;DHT22;33342;45.574;9.252;2023-02-05T17:08:53;12.50;99.90
47626;DHT22;33342;45.574;9.252;2023-02-05T17:11:41;12.50;99.90
47626;DHT22;33342;45.574;9.252;2023-02-05T17:14:31;12.50;99.90
47626;DHT22;33342;45.574;9.252;2023-02-05T17:17:17;12.50;99.90
47626;DHT22;33342;45.574;9.252;2023-02-05T17:20:03;12.50;99.90
47626;DHT22;33342;45.574;9.252;2023-02-05T17:22:30;12.40;99.90
47626;DHT22;33342;45.574;9.252;2023-02-05T17:24:58;12.40;99.90
47626;DHT22;33342;45.574;9.252;2023-02-05T17:27:31;12.40;99.90
47626;DHT22;33342;45.574;9.252;2023-02-05T17:30:03;12.40;99.90
47626;DHT22;33342;45.574;9.252;2023-02-05T17:32:31;12.40;99.90
47626;DHT22;33342;45.574;9.252;2023-02-05T17:34:58;12.40;99.90
47626;DHT22;33342;45.574;9.252;2023-02-05T17:37:26;12.40;99.90
47626;DHT22;33342;45.574;9.252;2023-02-05T17:39:53;12.40;99.90
47626;DHT22;33342;45.574;9.252;2023-02-05T17:42:23;12.40;99.90
47626;DHT22;33342;45.574;9.252;2023-02-05T17:44:51;12.30;99.90
47626;DHT22;33342;45.574;9.252;2023-02-05T17:47:19;12.30;99.90
47626;DHT22;33342;45.574;9.252;2023-02-05T17:49:46;12.30;99.90
47626;DHT22;33342;45.574;9.252;2023-02-05T17:52:13;12.30;99.90
47626;DHT22;33342;45.574;9.252;2023-02-05T17:54:43;12.30;99.90
47626;DHT22;33342;45.574;9.252;2023-02-05T17:57:15;12.30;99.90
47626;DHT22;33342;45.574;9.252;2023-02-05T17:59:44;12.30;99.90
47626;DHT22;33342;45.574;9.252;2023-02-05T18:02:12;12.20;99.90
47626;DHT22;33342;45.574;9.252;2023-02-05T18:04:40;12.20;99.90
47626;DHT22;33342;45.574;9.252;2023-02-05T18:07:21;12.20;99.90
47626;DHT22;33342;45.574;9.252;2023-02-05T18:09:51;12.10;99.90
47626;DHT22;33342;45.574;9.252;2023-02-05T18:12:18;12.10;99.90
47626;DHT22;33342;45.574;9.252;2023-02-05T18:14:45;12.10;99.90
47626;DHT22;33342;45.574;9.252;2023-02-05T18:17:12;12.00;99.90
47626;DHT22;33342;45.574;9.252;2023-02-05T18:19:39;12.00;99.90
47626;DHT22;33342;45.574;9.252;2023-02-05T18:22:06;12.00;99.90
47626;DHT22;33342;45.574;9.252;2023-02-05T18:24:34;12.00;99.90
47626;DHT22;33342;45.574;9.252;2023-02-05T18:27:06;11.90;99.90
47626;DHT22;33342;45.574;9.252;2023-02-05T18:29:34;11.90;99.90